createdAt,value
2018-06-14T00:00:47.400Z,66.35
2018-06-14T00:01:51.715Z,66.46
2018-06-14T00:02:56.006Z,67.01
2018-06-14T00:04:00.521Z,67.19
2018-06-14T00:05:05.045Z,67.20
2018-06-14T00:06:09.526Z,66.92
2018-06-14T00:07:13.842Z,67.29
2018-06-14T00:08:18.115Z,66.73
2018-06-14T00:09:22.407Z,67.05
2018-06-14T00:10:26.780Z,67.07
2018-06-14T00:11:31.111Z,66.80
2018-06-14T00:12:35.536Z,67.39
2018-06-14T00:13:39.787Z,66.75
2018-06-14T00:14:44.412Z,67.18
2018-06-14T00:15:48.689Z,66.87
2018-06-14T00:16:53.175Z,66.91
2018-06-14T00:17:57.452Z,67.01
2018-06-14T00:19:01.745Z,67.59
2018-06-14T00:20:07.193Z,67.66
2018-06-14T00:21:11.501Z,67.69
2018-06-14T00:22:15.893Z,67.71
2018-06-14T00:23:20.149Z,67.62
2018-06-14T00:24:24.630Z,67.71
2018-06-14T00:25:29.010Z,67.10
2018-06-14T00:26:33.270Z,67.75
2018-06-14T00:27:37.504Z,67.75
2018-06-14T00:28:41.791Z,67.26
2018-06-14T00:29:46.427Z,67.63
2018-06-14T00:30:50.799Z,67.55
2018-06-14T00:31:55.117Z,66.94
2018-06-14T00:32:59.429Z,67.64
2018-06-14T00:34:03.704Z,67.57
2018-06-14T00:35:08.324Z,67.30
2018-06-14T00:36:12.665Z,66.92
2018-06-14T00:37:16.901Z,67.63
2018-06-14T00:38:21.449Z,66.93
2018-06-14T00:39:25.749Z,66.87
2018-06-14T00:40:30.058Z,67.52
2018-06-14T00:41:34.574Z,67.60
2018-06-14T00:42:39.032Z,67.52
2018-06-14T00:43:43.356Z,67.37
2018-06-14T00:44:47.728Z,67.08
2018-06-14T00:45:52.018Z,66.83
2018-06-14T00:46:56.660Z,67.63
2018-06-14T00:48:00.906Z,66.97
2018-06-14T00:49:05.341Z,67.48
2018-06-14T00:50:09.635Z,67.61
2018-06-14T00:51:13.924Z,67.51
2018-06-14T00:52:18.172Z,67.54
2018-06-14T00:53:22.629Z,66.76
2018-06-14T00:54:26.948Z,67.45
2018-06-14T00:55:31.210Z,66.98
2018-06-14T00:56:46.516Z,67.50
2018-06-14T00:57:51.098Z,67.48
2018-06-14T00:58:55.851Z,66.95
2018-06-14T01:00:00.139Z,67.52
2018-06-14T01:01:04.510Z,67.40
2018-06-14T01:02:09.459Z,67.20
2018-06-14T01:03:13.737Z,67.05
2018-06-14T01:04:18.137Z,67.64
2018-06-14T01:05:22.596Z,67.71
2018-06-14T01:06:26.932Z,67.14
2018-06-14T01:07:31.219Z,67.67
2018-06-14T01:08:35.521Z,67.51
2018-06-14T01:09:39.880Z,67.58
2018-06-14T01:10:44.201Z,67.57
2018-06-14T01:11:48.661Z,67.17
2018-06-14T01:12:53.060Z,67.90
2018-06-14T01:13:57.345Z,67.37
2018-06-14T01:15:01.634Z,67.98
2018-06-14T01:16:06.040Z,67.71
2018-06-14T01:17:10.613Z,67.76
2018-06-14T01:18:14.905Z,67.53
2018-06-14T01:19:19.197Z,68.15
2018-06-14T01:20:23.780Z,67.96
2018-06-14T01:21:28.063Z,67.77
2018-06-14T01:22:32.349Z,68.52
2018-06-14T01:23:36.747Z,68.01
2018-06-14T01:24:41.107Z,68.30
2018-06-14T01:25:45.368Z,68.23
2018-06-14T01:26:49.956Z,68.03
2018-06-14T01:27:54.294Z,68.13
2018-06-14T01:28:58.560Z,68.88
2018-06-14T01:30:02.873Z,68.76
2018-06-14T01:31:07.159Z,68.84
2018-06-14T01:32:11.521Z,68.83
2018-06-14T01:33:15.831Z,68.64
2018-06-14T01:34:20.134Z,69.14
2018-06-14T01:35:24.469Z,68.79
2018-06-14T01:36:28.721Z,68.53
2018-06-14T01:37:44.164Z,69.38
2018-06-14T01:38:48.767Z,68.73
2018-06-14T01:39:53.363Z,68.90
2018-06-14T01:40:57.711Z,69.29
2018-06-14T01:42:02.187Z,69.42
2018-06-14T01:43:06.885Z,69.16
2018-06-14T01:44:11.132Z,69.32
2018-06-14T01:45:15.478Z,69.34
2018-06-14T01:46:19.675Z,69.49
2018-06-14T01:47:24.092Z,69.51
2018-06-14T01:48:28.516Z,69.37
2018-06-14T01:49:33.201Z,69.69
2018-06-14T01:50:37.663Z,70.15
2018-06-14T01:51:41.916Z,69.54
2018-06-14T01:52:46.337Z,69.65
2018-06-14T01:53:50.892Z,69.75
2018-06-14T01:54:55.244Z,70.04
2018-06-14T01:55:59.531Z,70.42
2018-06-14T01:57:03.933Z,70.46
2018-06-14T01:58:08.428Z,70.17
2018-06-14T01:59:12.815Z,70.11
2018-06-14T02:00:19.956Z,70.34
2018-06-14T02:01:24.196Z,70.54
2018-06-14T02:02:28.844Z,70.20
2018-06-14T02:03:33.388Z,69.83
2018-06-14T02:04:37.944Z,70.37
2018-06-14T02:05:42.307Z,70.31
2018-06-14T02:06:46.640Z,70.72
2018-06-14T02:07:51.035Z,70.59
2018-06-14T02:08:55.271Z,69.96
2018-06-14T02:09:59.563Z,70.82
2018-06-14T02:11:04.051Z,69.95
2018-06-14T02:12:08.561Z,70.12
2018-06-14T02:13:12.880Z,70.08
2018-06-14T02:14:17.136Z,70.24
2018-06-14T02:15:21.492Z,70.11
2018-06-14T02:16:25.801Z,70.70
2018-06-14T02:17:30.110Z,70.77
2018-06-14T02:18:34.591Z,69.94
2018-06-14T02:19:38.877Z,70.05
2018-06-14T02:20:43.429Z,70.47
2018-06-14T02:21:47.748Z,70.61
2018-06-14T02:22:52.066Z,70.06
2018-06-14T02:23:56.378Z,70.58
2018-06-14T02:25:00.692Z,70.24
2018-06-14T02:26:05.559Z,70.09
2018-06-14T02:27:09.869Z,70.18
2018-06-14T02:28:14.153Z,70.51
2018-06-14T02:29:18.497Z,70.03
2018-06-14T02:30:23.040Z,70.63
2018-06-14T02:31:27.671Z,70.46
2018-06-14T02:32:32.045Z,70.31
2018-06-14T02:33:36.505Z,69.94
2018-06-14T02:34:41.110Z,70.60
2018-06-14T02:35:45.500Z,69.77
2018-06-14T02:36:49.859Z,70.37
2018-06-14T02:37:54.111Z,69.82
2018-06-14T02:38:58.481Z,70.09
2018-06-14T02:40:02.817Z,70.31
2018-06-14T02:41:07.227Z,70.17
2018-06-14T02:42:11.573Z,70.15
2018-06-14T02:43:15.849Z,69.76
2018-06-14T02:44:20.201Z,69.49
2018-06-14T02:45:24.429Z,70.23
2018-06-14T02:46:28.713Z,69.39
2018-06-14T02:47:33.104Z,69.39
2018-06-14T02:48:37.416Z,69.40
2018-06-14T02:49:41.795Z,69.96
2018-06-14T02:50:46.372Z,69.96
2018-06-14T02:51:50.628Z,69.94
2018-06-14T02:52:55.233Z,69.88
2018-06-14T02:53:59.688Z,69.74
2018-06-14T02:55:04.820Z,69.85
2018-06-14T02:56:09.078Z,69.52
2018-06-14T02:57:13.506Z,69.70
2018-06-14T02:58:17.881Z,69.15
2018-06-14T02:59:22.177Z,69.46
2018-06-14T03:00:26.498Z,69.65
2018-06-14T03:01:30.911Z,69.23
2018-06-14T03:02:35.355Z,69.09
2018-06-14T03:03:39.600Z,69.06
2018-06-14T03:04:44.243Z,68.81
2018-06-14T03:05:48.496Z,68.96
2018-06-14T03:06:53.074Z,69.16
2018-06-14T03:07:57.337Z,69.61
2018-06-14T03:09:01.832Z,68.88
2018-06-14T03:10:06.416Z,69.19
2018-06-14T03:11:10.689Z,68.77
2018-06-14T03:12:14.968Z,69.52
2018-06-14T03:13:19.253Z,69.40
2018-06-14T03:14:23.701Z,69.47
2018-06-14T03:15:28.249Z,69.40
2018-06-14T03:16:32.706Z,69.56
2018-06-14T03:17:36.962Z,69.16
2018-06-14T03:18:41.425Z,69.22
2018-06-14T03:19:45.775Z,69.55
2018-06-14T03:20:50.477Z,69.22
2018-06-14T03:21:54.852Z,69.54
2018-06-14T03:22:59.234Z,69.90
2018-06-14T03:24:03.599Z,69.25
2018-06-14T03:25:08.010Z,69.25
2018-06-14T03:26:12.552Z,69.83
2018-06-14T03:27:17.024Z,69.77
2018-06-14T03:28:21.324Z,69.35
2018-06-14T03:29:25.602Z,69.45
2018-06-14T03:30:30.148Z,69.92
2018-06-14T03:31:34.416Z,69.45
2018-06-14T03:32:38.763Z,70.05
2018-06-14T03:33:43.090Z,70.09
2018-06-14T03:34:47.330Z,70.10
2018-06-14T03:35:51.681Z,69.60
2018-06-14T03:36:55.956Z,70.11
2018-06-14T03:38:00.365Z,69.61
2018-06-14T03:39:06.798Z,69.55
2018-06-14T03:40:11.456Z,69.84
2018-06-14T03:41:15.683Z,69.72
2018-06-14T03:42:19.925Z,69.67
2018-06-14T03:43:24.223Z,70.28
2018-06-14T03:44:28.640Z,69.79
2018-06-14T03:45:33.209Z,70.14
2018-06-14T03:46:37.649Z,69.88
2018-06-14T03:47:42.177Z,70.32
2018-06-14T03:48:46.474Z,70.11
2018-06-14T03:49:50.818Z,69.80
2018-06-14T03:50:55.344Z,69.84
2018-06-14T03:51:59.925Z,70.34
2018-06-14T03:53:04.204Z,70.42
2018-06-14T03:54:08.862Z,69.92
2018-06-14T03:55:13.314Z,70.56
2018-06-14T03:56:17.622Z,70.04
2018-06-14T03:57:22.106Z,70.60
2018-06-14T03:58:26.460Z,70.29
2018-06-14T03:59:30.983Z,70.17
2018-06-14T04:00:35.324Z,70.17
2018-06-14T04:01:39.620Z,70.26
2018-06-14T04:02:44.316Z,70.76
2018-06-14T04:03:48.570Z,70.36
2018-06-14T04:04:53.136Z,70.32
2018-06-14T04:05:57.500Z,70.22
2018-06-14T04:07:01.823Z,70.14
2018-06-14T04:08:06.106Z,71.08
2018-06-14T04:09:11.956Z,70.88
2018-06-14T04:10:16.295Z,70.57
2018-06-14T04:11:20.564Z,70.89
2018-06-14T04:12:24.913Z,70.61
2018-06-14T04:13:29.542Z,70.96
2018-06-14T04:14:34.122Z,70.86
2018-06-14T04:15:38.796Z,70.76
2018-06-14T04:16:43.069Z,70.90
2018-06-14T04:17:52.485Z,71.02
2018-06-14T04:18:56.889Z,71.07
2018-06-14T04:20:01.464Z,70.37
2018-06-14T04:21:06.160Z,70.44
2018-06-14T04:22:10.637Z,70.90
2018-06-14T04:23:15.285Z,70.42
2018-06-14T04:24:19.643Z,70.52
2018-06-14T04:25:23.949Z,70.36
2018-06-14T04:26:28.493Z,70.20
2018-06-14T04:27:33.230Z,70.97
2018-06-14T04:28:37.539Z,70.25
2018-06-14T04:29:42.019Z,70.20
2018-06-14T04:30:46.406Z,70.84
2018-06-14T04:31:50.753Z,70.75
2018-06-14T04:32:55.009Z,70.57
2018-06-14T04:33:59.417Z,70.69
2018-06-14T04:35:03.780Z,70.56
2018-06-14T04:36:08.265Z,70.20
2018-06-14T04:37:12.580Z,69.91
2018-06-14T04:38:16.992Z,70.56
2018-06-14T04:39:21.466Z,69.83
2018-06-14T04:40:25.674Z,70.54
2018-06-14T04:41:29.861Z,70.08
2018-06-14T04:42:34.409Z,70.51
2018-06-14T04:43:38.720Z,70.61
2018-06-14T04:44:43.058Z,69.89
2018-06-14T04:45:47.351Z,70.41
2018-06-14T04:46:51.511Z,70.30
2018-06-14T04:47:55.760Z,70.53
2018-06-14T04:48:59.976Z,70.46
2018-06-14T04:50:04.322Z,70.14
2018-06-14T04:51:08.833Z,69.73
2018-06-14T04:52:13.236Z,69.55
2018-06-14T04:53:17.629Z,69.51
2018-06-14T04:54:22.072Z,70.17
2018-06-14T04:55:26.325Z,69.68
2018-06-14T04:56:30.938Z,69.99
2018-06-14T04:57:35.270Z,69.62
2018-06-14T04:58:39.690Z,69.97
2018-06-14T04:59:44.064Z,69.71
2018-06-14T05:00:48.360Z,69.31
2018-06-14T05:01:52.602Z,69.14
2018-06-14T05:02:56.779Z,69.12
2018-06-14T05:04:00.998Z,69.56
2018-06-14T05:05:05.957Z,68.99
2018-06-14T05:06:10.116Z,69.10
2018-06-14T05:07:14.665Z,69.18
2018-06-14T05:08:23.049Z,68.82
2018-06-14T05:09:27.286Z,68.49
2018-06-14T05:10:31.682Z,68.45
2018-06-14T05:11:36.092Z,68.23
2018-06-14T05:12:40.359Z,67.14
2018-06-14T05:13:44.603Z,67.26
2018-06-14T05:14:48.860Z,66.87
2018-06-14T05:15:53.896Z,65.90
2018-06-14T05:16:58.212Z,65.60
2018-06-14T05:18:02.473Z,65.36
2018-06-14T05:19:07.237Z,65.38
2018-06-14T05:20:11.562Z,64.76
2018-06-14T05:21:16.207Z,64.89
2018-06-14T05:22:20.474Z,63.78
2018-06-14T05:23:24.920Z,64.09
2018-06-14T05:24:29.155Z,63.65
2018-06-14T05:25:33.358Z,63.90
2018-06-14T05:26:37.664Z,63.52
2018-06-14T05:27:41.873Z,62.55
2018-06-14T05:28:46.099Z,62.60
2018-06-14T05:29:50.392Z,62.17
2018-06-14T05:30:55.257Z,62.24
2018-06-14T05:31:59.910Z,61.64
2018-06-14T05:33:04.237Z,61.70
2018-06-14T05:34:08.560Z,61.43
2018-06-14T05:35:13.108Z,61.45
2018-06-14T05:36:17.592Z,61.31
2018-06-14T05:37:22.078Z,60.38
2018-06-14T05:38:26.292Z,60.80
2018-06-14T05:39:30.526Z,59.67
2018-06-14T05:40:34.880Z,60.04
2018-06-14T05:41:39.601Z,59.86
2018-06-14T05:42:43.942Z,59.35
2018-06-14T05:43:48.392Z,59.65
2018-06-14T05:44:52.825Z,59.50
2018-06-14T05:45:57.263Z,59.33
2018-06-14T05:47:01.505Z,59.29
2018-06-14T05:48:05.776Z,59.20
2018-06-14T05:49:10.224Z,58.95
2018-06-14T05:50:14.476Z,58.91
2018-06-14T05:51:18.705Z,58.42
2018-06-14T05:52:23.251Z,58.94
2018-06-14T05:53:28.065Z,58.31
2018-06-14T05:54:32.619Z,58.29
2018-06-14T05:55:36.825Z,58.00
2018-06-14T05:56:41.146Z,57.81
2018-06-14T05:57:45.356Z,58.01
2018-06-14T05:58:49.816Z,57.38
2018-06-14T05:59:54.098Z,57.43
2018-06-14T06:00:58.611Z,57.44
2018-06-14T06:02:02.879Z,57.44
2018-06-14T06:03:07.123Z,56.77
2018-06-14T06:04:11.554Z,57.11
2018-06-14T06:05:17.182Z,56.85
2018-06-14T06:06:21.768Z,56.71
2018-06-14T06:07:26.007Z,56.78
2018-06-14T06:08:30.785Z,56.33
2018-06-14T06:09:35.105Z,56.28
2018-06-14T06:10:39.708Z,56.01
2018-06-14T06:11:44.179Z,55.88
2018-06-14T06:12:48.463Z,55.59
2018-06-14T06:13:52.740Z,55.75
2018-06-14T06:14:57.023Z,55.40
2018-06-14T06:16:01.276Z,55.70
2018-06-14T06:17:05.483Z,54.84
2018-06-14T06:18:09.719Z,54.84
2018-06-14T06:19:14.212Z,54.60
2018-06-14T06:20:19.185Z,54.84
2018-06-14T06:21:23.806Z,54.63
2018-06-14T06:22:28.230Z,54.38
2018-06-14T06:23:32.503Z,54.32
2018-06-14T06:24:36.886Z,55.05
2018-06-14T06:25:41.343Z,54.67
2018-06-14T06:26:45.944Z,54.22
2018-06-14T06:27:50.225Z,54.16
2018-06-14T06:28:54.485Z,54.84
2018-06-14T06:29:58.727Z,54.46
2018-06-14T06:31:03.201Z,54.55
2018-06-14T06:32:07.542Z,54.70
2018-06-14T06:33:12.186Z,54.63
2018-06-14T06:34:16.343Z,54.41
2018-06-14T06:35:20.741Z,54.61
2018-06-14T06:36:25.048Z,54.31
2018-06-14T06:37:29.492Z,54.87
2018-06-14T06:38:33.887Z,54.94
2018-06-14T06:39:38.488Z,54.77
2018-06-14T06:40:42.759Z,54.68
2018-06-14T06:41:47.340Z,54.35
2018-06-14T06:42:51.835Z,53.77
2018-06-14T06:43:56.255Z,53.79
2018-06-14T06:45:00.540Z,54.13
2018-06-14T06:46:05.244Z,54.46
2018-06-14T06:47:10.046Z,53.67
2018-06-14T06:48:14.344Z,54.14
2018-06-14T06:49:18.576Z,53.48
2018-06-14T06:50:23.146Z,54.04
2018-06-14T06:51:27.512Z,53.86
2018-06-14T06:52:31.896Z,53.09
2018-06-14T06:53:36.205Z,53.42
2018-06-14T06:54:40.832Z,52.67
2018-06-14T06:55:45.227Z,53.27
2018-06-14T06:56:49.614Z,52.84
2018-06-14T06:57:53.931Z,52.97
2018-06-14T06:58:58.285Z,52.57
2018-06-14T07:00:02.711Z,53.13
2018-06-14T07:01:07.809Z,53.06
2018-06-14T07:02:12.034Z,52.57
2018-06-14T07:03:16.472Z,52.16
2018-06-14T07:04:20.835Z,52.30
2018-06-14T07:05:25.255Z,52.37
2018-06-14T07:06:29.729Z,52.15
2018-06-14T07:07:33.985Z,51.90
2018-06-14T07:08:38.323Z,52.21
2018-06-14T07:09:42.587Z,51.96
2018-06-14T07:10:46.886Z,51.96
2018-06-14T07:11:51.227Z,51.68
2018-06-14T07:12:55.467Z,50.73
2018-06-14T07:13:59.767Z,50.93
2018-06-14T07:15:04.388Z,50.44
2018-06-14T07:16:08.666Z,50.85
2018-06-14T07:17:12.994Z,50.67
2018-06-14T07:18:17.427Z,50.91
2018-06-14T07:19:21.809Z,51.20
2018-06-14T07:20:26.405Z,50.52
2018-06-14T07:21:31.313Z,51.39
2018-06-14T07:22:35.509Z,50.60
2018-06-14T07:23:39.998Z,51.06
2018-06-14T07:24:44.307Z,50.65
2018-06-14T07:25:48.604Z,51.13
2018-06-14T07:26:52.923Z,50.80
2018-06-14T07:27:57.481Z,50.66
2018-06-14T07:29:01.942Z,50.82
2018-06-14T07:30:06.652Z,50.60
2018-06-14T07:31:11.500Z,50.42
2018-06-14T07:32:15.984Z,50.63
2018-06-14T07:33:20.423Z,50.14
2018-06-14T07:34:24.672Z,50.19
2018-06-14T07:35:28.922Z,50.63
2018-06-14T07:36:33.199Z,50.07
2018-06-14T07:37:37.448Z,50.22
2018-06-14T07:38:41.789Z,50.07
2018-06-14T07:39:46.141Z,50.65
2018-06-14T07:40:50.701Z,50.16
2018-06-14T07:41:55.662Z,50.60
2018-06-14T07:43:00.203Z,49.70
2018-06-14T07:44:04.520Z,49.74
2018-06-14T07:45:09.099Z,50.47
2018-06-14T07:46:13.599Z,49.92
2018-06-14T07:47:17.828Z,50.07
2018-06-14T07:48:22.405Z,49.65
2018-06-14T07:49:26.744Z,49.76
2018-06-14T07:50:31.340Z,49.53
2018-06-14T07:51:35.626Z,49.47
2018-06-14T07:52:39.968Z,49.39
2018-06-14T07:53:44.258Z,49.71
2018-06-14T07:54:48.792Z,49.90
2018-06-14T07:55:53.041Z,49.42
2018-06-14T07:56:57.476Z,50.17
2018-06-14T07:58:01.944Z,49.20
2018-06-14T07:59:06.308Z,49.84
2018-06-14T08:00:10.558Z,50.04
2018-06-14T08:01:14.832Z,49.77
2018-06-14T08:02:19.467Z,49.72
2018-06-14T08:03:23.667Z,49.90
2018-06-14T08:04:28.017Z,49.42
2018-06-14T08:05:32.578Z,50.06
2018-06-14T08:06:37.141Z,49.61
2018-06-14T08:07:41.667Z,49.69
2018-06-14T08:08:45.975Z,49.98
2018-06-14T08:09:50.308Z,50.10
2018-06-14T08:10:54.649Z,50.21
2018-06-14T08:11:58.897Z,49.60
2018-06-14T08:13:03.369Z,49.75
2018-06-14T08:14:07.831Z,49.83
2018-06-14T08:15:12.433Z,49.97
2018-06-14T08:16:16.781Z,50.16
2018-06-14T08:17:21.082Z,50.53
2018-06-14T08:18:25.457Z,50.31
2018-06-14T08:19:29.878Z,50.44
2018-06-14T08:20:34.120Z,50.26
2018-06-14T08:21:38.614Z,50.31
2018-06-14T08:22:42.889Z,49.69
2018-06-14T08:23:47.297Z,49.70
2018-06-14T08:24:51.488Z,49.28
2018-06-14T08:25:55.848Z,49.71
2018-06-14T08:27:00.109Z,49.04
2018-06-14T08:28:04.850Z,49.38
2018-06-14T08:29:09.160Z,49.22
2018-06-14T08:30:13.700Z,48.72
2018-06-14T08:31:18.238Z,48.86
2018-06-14T08:32:22.451Z,48.61
2018-06-14T08:33:26.975Z,48.10
2018-06-14T08:34:31.237Z,48.32
2018-06-14T08:35:35.440Z,48.31
2018-06-14T08:36:40.094Z,47.49
2018-06-14T08:37:44.533Z,47.10
2018-06-14T08:38:48.823Z,46.26
2018-06-14T08:39:53.037Z,45.59
2018-06-14T08:40:57.299Z,45.67
2018-06-14T08:42:01.537Z,45.57
2018-06-14T08:43:05.763Z,44.61
2018-06-14T08:44:09.979Z,45.27
2018-06-14T08:45:14.323Z,44.74
2018-06-14T08:46:18.526Z,44.52
2018-06-14T08:47:22.740Z,45.04
2018-06-14T08:48:27.427Z,44.54
2018-06-14T08:49:31.651Z,45.02
2018-06-14T08:50:35.883Z,45.31
2018-06-14T08:51:40.120Z,45.43
2018-06-14T08:52:44.399Z,44.81
2018-06-14T08:53:48.581Z,45.15
2018-06-14T08:54:52.992Z,45.14
2018-06-14T08:55:57.496Z,45.20
2018-06-14T08:57:01.768Z,44.99
2018-06-14T08:58:06.481Z,43.97
2018-06-14T08:59:11.028Z,43.78
2018-06-14T09:00:15.214Z,43.38
2018-06-14T09:01:20.510Z,43.63
2018-06-14T09:02:24.675Z,43.10
2018-06-14T09:03:29.176Z,42.92
2018-06-14T09:04:33.729Z,42.69
2018-06-14T09:05:38.128Z,43.12
2018-06-14T09:06:42.588Z,42.47
2018-06-14T09:07:46.905Z,42.54
2018-06-14T09:08:51.130Z,42.43
2018-06-14T09:09:55.337Z,43.03
2018-06-14T09:10:59.761Z,42.91
2018-06-14T09:12:04.019Z,42.92
2018-06-14T09:13:08.493Z,42.61
2018-06-14T09:14:12.817Z,42.99
2018-06-14T09:15:17.300Z,42.48
2018-06-14T09:16:21.903Z,42.41
2018-06-14T09:17:26.405Z,42.58
2018-06-14T09:18:30.800Z,42.63
2018-06-14T09:19:35.504Z,41.91
2018-06-14T09:20:40.405Z,42.33
2018-06-14T09:21:45.022Z,42.06
2018-06-14T09:22:49.245Z,42.09
2018-06-14T09:23:53.566Z,41.25
2018-06-14T09:24:58.032Z,40.89
2018-06-14T09:26:02.254Z,40.89
2018-06-14T09:27:06.768Z,41.04
2018-06-14T09:28:11.062Z,41.44
2018-06-14T09:29:15.273Z,40.92
2018-06-14T09:30:19.710Z,40.58
2018-06-14T09:31:23.986Z,40.74
2018-06-14T09:32:28.182Z,40.87
2018-06-14T09:33:32.436Z,40.95
2018-06-14T09:34:36.702Z,40.69
2018-06-14T09:35:41.011Z,40.70
2018-06-14T09:36:45.610Z,41.40
2018-06-14T09:37:50.083Z,40.75
2018-06-14T09:38:54.332Z,40.59
2018-06-14T09:39:58.664Z,40.50
2018-06-14T09:41:02.974Z,40.53
2018-06-14T09:42:07.199Z,40.82
2018-06-14T09:43:11.910Z,40.84
2018-06-14T09:44:16.167Z,40.82
2018-06-14T09:45:20.535Z,41.26
2018-06-14T09:46:24.880Z,40.57
2018-06-14T09:47:29.104Z,41.39
2018-06-14T09:48:33.529Z,41.42
2018-06-14T09:49:37.904Z,41.13
2018-06-14T09:50:42.130Z,40.50
2018-06-14T09:51:48.067Z,40.20
2018-06-14T09:52:52.445Z,40.44
2018-06-14T09:53:56.665Z,39.57
2018-06-14T09:55:01.034Z,40.11
2018-06-14T09:56:05.446Z,39.51
2018-06-14T09:57:09.659Z,39.42
2018-06-14T09:58:13.939Z,39.24
2018-06-14T09:59:18.320Z,39.91
2018-06-14T10:00:22.693Z,40.13
2018-06-14T10:01:26.887Z,39.88
2018-06-14T10:02:31.545Z,39.98
2018-06-14T10:03:35.831Z,39.97
2018-06-14T10:04:40.183Z,39.48
2018-06-14T10:05:45.037Z,39.54
2018-06-14T10:06:49.245Z,39.77
2018-06-14T10:07:53.516Z,39.50
2018-06-14T10:08:57.752Z,39.34
2018-06-14T10:10:01.995Z,39.88
2018-06-14T10:11:06.336Z,39.78
2018-06-14T10:12:10.627Z,39.94
2018-06-14T10:13:14.931Z,39.79
2018-06-14T10:14:19.346Z,40.12
2018-06-14T10:16:26.882Z,39.06
2018-06-14T10:17:31.303Z,38.99
2018-06-14T10:18:35.552Z,39.32
2018-06-14T10:19:39.940Z,39.03
2018-06-14T10:20:44.456Z,38.77
2018-06-14T10:21:49.290Z,38.74
2018-06-14T10:22:53.551Z,39.12
2018-06-14T10:23:57.760Z,38.31
2018-06-14T10:25:02.165Z,38.84
2018-06-14T10:26:06.434Z,38.68
2018-06-14T10:27:10.689Z,38.21
2018-06-14T10:28:14.968Z,38.18
2018-06-14T10:29:19.293Z,38.98
2018-06-14T10:30:23.460Z,38.70
2018-06-14T10:31:27.940Z,38.85
2018-06-14T10:32:32.456Z,38.50
2018-06-14T10:33:36.895Z,38.38
2018-06-14T10:34:41.198Z,37.60
2018-06-14T10:35:45.456Z,37.58
2018-06-14T10:36:49.756Z,37.75
2018-06-14T10:37:54.013Z,37.81
2018-06-14T10:38:58.315Z,37.37
2018-06-14T10:40:02.880Z,36.79
2018-06-14T10:41:07.534Z,37.27
2018-06-14T10:42:11.739Z,36.60
2018-06-14T10:43:16.131Z,36.69
2018-06-14T10:44:20.373Z,36.78
2018-06-14T10:45:24.749Z,36.44
2018-06-14T10:46:29.131Z,37.08
2018-06-14T10:47:33.327Z,36.77
2018-06-14T10:48:37.607Z,36.36
2018-06-14T10:49:41.936Z,35.92
2018-06-14T10:50:46.244Z,36.80
2018-06-14T10:51:50.468Z,36.16
2018-06-14T10:53:00.337Z,36.97
2018-06-14T10:54:05.318Z,36.12
2018-06-14T10:55:09.511Z,36.52
2018-06-14T10:56:13.767Z,36.23
2018-06-14T10:57:17.992Z,36.15
2018-06-14T10:58:22.212Z,37.04
2018-06-14T10:59:26.607Z,36.17
2018-06-14T11:00:30.831Z,36.61
2018-06-14T11:01:35.018Z,35.94
2018-06-14T11:02:39.315Z,36.33
2018-06-14T11:03:43.517Z,35.87
2018-06-14T11:04:48.415Z,36.61
2018-06-14T11:05:52.702Z,36.74
2018-06-14T11:06:56.901Z,36.60
2018-06-14T11:08:01.432Z,36.30
2018-06-14T11:09:08.693Z,36.57
2018-06-14T11:10:12.985Z,36.02
2018-06-14T11:11:17.291Z,36.24
2018-06-14T11:12:21.669Z,36.40
2018-06-14T11:13:25.906Z,36.86
2018-06-14T11:14:30.263Z,36.78
2018-06-14T11:15:34.515Z,35.74
2018-06-14T11:16:38.929Z,36.17
2018-06-14T11:17:43.412Z,36.25
2018-06-14T11:18:47.905Z,35.80
2018-06-14T11:19:52.339Z,36.42
2018-06-14T11:20:56.872Z,36.78
2018-06-14T11:22:01.908Z,36.61
2018-06-14T11:23:06.243Z,36.73
2018-06-14T11:24:10.636Z,36.07
2018-06-14T11:25:14.937Z,36.27
2018-06-14T11:26:19.353Z,35.40
2018-06-14T11:27:23.551Z,35.25
2018-06-14T11:28:27.833Z,35.42
2018-06-14T11:29:32.487Z,35.94
2018-06-14T11:30:37.021Z,35.75
2018-06-14T11:31:41.300Z,36.01
2018-06-14T11:32:45.713Z,35.41
2018-06-14T11:33:49.934Z,35.95
2018-06-14T11:34:54.379Z,35.47
2018-06-14T11:35:58.796Z,35.22
2018-06-14T11:37:03.202Z,34.88
2018-06-14T11:38:07.555Z,34.57
2018-06-14T11:39:11.989Z,34.98
2018-06-14T11:40:16.180Z,34.62
2018-06-14T11:41:20.724Z,34.43
2018-06-14T11:42:24.983Z,34.48
2018-06-14T11:43:29.337Z,35.25
2018-06-14T11:44:33.559Z,34.87
2018-06-14T11:45:38.333Z,35.33
2018-06-14T11:46:42.691Z,35.18
2018-06-14T11:47:46.887Z,35.59
2018-06-14T11:48:51.359Z,35.25
2018-06-14T11:49:55.539Z,35.35
2018-06-14T11:50:59.978Z,35.17
2018-06-14T11:52:04.329Z,34.77
2018-06-14T11:53:08.581Z,35.07
2018-06-14T11:54:13.113Z,36.01
2018-06-14T11:55:17.359Z,35.85
2018-06-14T11:56:21.558Z,35.20
2018-06-14T11:57:25.861Z,35.61
2018-06-14T11:58:30.105Z,35.36
2018-06-14T11:59:35.512Z,35.83
2018-06-14T12:00:39.731Z,35.87
2018-06-14T12:01:44.082Z,35.33
2018-06-14T12:02:48.494Z,36.03
2018-06-14T12:03:53.282Z,35.95
2018-06-14T12:04:57.669Z,35.53
2018-06-14T12:06:01.903Z,35.97
2018-06-14T12:07:06.105Z,35.84
2018-06-14T12:08:10.429Z,35.52
2018-06-14T12:09:14.651Z,35.33
2018-06-14T12:10:18.846Z,35.43
2018-06-14T12:11:23.153Z,34.87
2018-06-14T12:12:27.335Z,35.55
2018-06-14T12:13:31.780Z,35.12
2018-06-14T12:14:36.198Z,35.67
2018-06-14T12:15:40.465Z,35.63
2018-06-14T12:16:44.769Z,35.22
2018-06-14T12:17:49.024Z,35.32
2018-06-14T12:18:53.379Z,35.70
2018-06-14T12:19:57.760Z,35.00
2018-06-14T12:21:02.009Z,35.33
2018-06-14T12:22:06.803Z,35.76
2018-06-14T12:23:11.372Z,35.33
2018-06-14T12:24:15.939Z,35.63
2018-06-14T12:25:20.667Z,35.15
2018-06-14T12:26:25.028Z,35.12
2018-06-14T12:27:29.445Z,35.40
2018-06-14T12:28:33.775Z,35.27
2018-06-14T12:29:38.212Z,35.40
2018-06-14T12:30:42.495Z,35.82
2018-06-14T12:31:46.925Z,35.51
2018-06-14T12:32:51.240Z,35.55
2018-06-14T12:33:55.620Z,35.19
2018-06-14T12:34:59.969Z,35.33
2018-06-14T12:36:04.615Z,35.47
2018-06-14T12:37:08.900Z,35.15
2018-06-14T12:38:13.103Z,35.27
2018-06-14T12:39:17.345Z,34.78
2018-06-14T12:40:21.642Z,35.06
2018-06-14T12:41:26.264Z,35.49
2018-06-14T12:42:30.598Z,35.59
2018-06-14T12:43:35.069Z,35.74
2018-06-14T12:44:39.345Z,34.82
2018-06-14T12:45:43.975Z,34.94
2018-06-14T12:46:48.673Z,35.58
2018-06-14T12:47:52.959Z,34.84
2018-06-14T12:48:57.214Z,35.56
2018-06-14T12:50:01.582Z,35.23
2018-06-14T12:51:05.964Z,35.32
2018-06-14T12:52:10.793Z,35.53
2018-06-14T12:53:15.032Z,35.59
2018-06-14T12:54:19.317Z,35.58
2018-06-14T12:55:23.545Z,34.94
2018-06-14T12:56:28.648Z,35.55
2018-06-14T12:57:32.908Z,35.64
2018-06-14T12:58:37.269Z,35.56
2018-06-14T12:59:41.492Z,35.28
2018-06-14T13:00:45.823Z,35.43
2018-06-14T13:01:50.299Z,35.25
2018-06-14T13:02:54.759Z,35.33
2018-06-14T13:03:59.192Z,35.55
2018-06-14T13:05:03.806Z,35.17
2018-06-14T13:06:08.022Z,35.25
2018-06-14T13:07:12.281Z,35.38
2018-06-14T13:08:16.537Z,35.29
2018-06-14T13:09:20.934Z,35.53
2018-06-14T13:10:25.317Z,35.75
2018-06-14T13:11:29.768Z,35.09
2018-06-14T13:12:34.064Z,35.43
2018-06-14T13:13:38.369Z,35.01
2018-06-14T13:14:43.775Z,34.80
2018-06-14T13:15:48.345Z,34.98
2018-06-14T13:16:53.057Z,34.68
2018-06-14T13:17:57.401Z,34.41
2018-06-14T13:19:01.742Z,34.55
2018-06-14T13:20:06.373Z,34.28
2018-06-14T13:21:11.186Z,34.57
2018-06-14T13:22:16.080Z,34.73
2018-06-14T13:23:20.930Z,35.12
2018-06-14T13:24:25.649Z,35.52
2018-06-14T13:25:30.016Z,35.10
2018-06-14T13:26:34.251Z,35.57
2018-06-14T13:27:38.910Z,35.53
2018-06-14T13:28:43.136Z,35.02
2018-06-14T13:29:47.769Z,34.78
2018-06-14T13:30:51.964Z,35.31
2018-06-14T13:31:56.379Z,35.11
2018-06-14T13:33:00.676Z,35.60
2018-06-14T13:34:05.373Z,35.48
2018-06-14T13:35:09.640Z,35.39
2018-06-14T13:36:14.090Z,36.07
2018-06-14T13:37:18.300Z,35.81
2018-06-14T13:38:22.533Z,35.71
2018-06-14T13:39:26.801Z,35.54
2018-06-14T13:40:31.197Z,35.82
2018-06-14T13:41:35.465Z,36.31
2018-06-14T13:42:39.719Z,35.53
2018-06-14T13:43:44.151Z,36.27
2018-06-14T13:44:49.270Z,36.40
2018-06-14T13:45:53.849Z,36.51
2018-06-14T13:46:58.112Z,36.48
2018-06-14T13:48:02.307Z,36.37
2018-06-14T13:49:06.816Z,36.58
2018-06-14T13:50:11.084Z,36.34
2018-06-14T13:51:15.348Z,36.42